Time;durP1;ratioP1;P1;durP2;ratioP2;P2;SDS_P1;SDS_P2;PMS_P1;PMS_P2;Temp;Humidity;BMP_temperature;BMP_pressure;BME280_temperature;BME280_humidity;BME280_pressure;Samples;Min_cycle;Max_cycle;Signal;HPM_P1;HPM_P2
2022/05/13 00:00:21;;;;;;;12.9;11.6;;;;;;;16.41;77.69238;95624.24;;;;
2022/05/13 00:01:21;;;;;;;12.9;11.6;;;;;;;16.41;77.69238;95624.24;;;;
2022/05/13 00:02:22;;;;;;;12.9;11.6;;;;;;;16.41;77.69238;95624.24;;;;
2022/05/13 00:03:23;;;;;;;12.9;11.6;;;;;;;16.41;77.69238;95624.24;;;;
2022/05/13 00:04:23;;;;;;;12.9;11.6;;;;;;;16.41;77.69238;95624.24;;;;
2022/05/13 00:05:24;;;;;;;12.9;11.6;;;;;;;16.41;77.69238;95624.24;;;;
2022/05/13 00:06:25;;;;;;;12.9;11.6;;;;;;;16.41;77.69238;95624.24;;;;
2022/05/13 00:07:25;;;;;;;12.9;11.6;;;;;;;16.41;77.69238;95624.24;;;;
2022/05/13 00:08:26;;;;;;;12.9;11.6;;;;;;;16.41;77.69238;95624.24;;;;
2022/05/13 00:09:56;;;;;;;12.9;11.6;;;;;;;16.41;77.69238;95624.24;;;;
2022/05/13 00:10:56;;;;;;;13;11.4;;;;;;;16.38;78.04785;95621.53;;;;
2022/05/13 00:11:58;;;;;;;13;11.4;;;;;;;16.38;78.04785;95621.53;;;;
2022/05/13 00:12:58;;;;;;;13;11.4;;;;;;;16.38;78.04785;95621.53;;;;
2022/05/13 00:13:59;;;;;;;13;11.4;;;;;;;16.38;78.04785;95621.53;;;;
2022/05/13 00:15:01;;;;;;;13;11.4;;;;;;;16.38;78.04785;95621.53;;;;
2022/05/13 00:16:05;;;;;;;13;11.4;;;;;;;16.38;78.04785;95621.53;;;;
2022/05/13 00:17:06;;;;;;;13;11.4;;;;;;;16.38;78.04785;95621.53;;;;
2022/05/13 00:18:07;;;;;;;13;11.4;;;;;;;16.38;78.04785;95621.53;;;;
2022/05/13 00:19:11;;;;;;;13;11.4;;;;;;;16.38;78.04785;95621.53;;;;
2022/05/13 00:20:11;;;;;;;13;11.4;;;;;;;16.38;78.04785;95621.53;;;;
2022/05/13 00:21:12;;;;;;;13;11.4;;;;;;;16.38;78.04785;95621.53;;;;
2022/05/13 00:22:12;;;;;;;13.35;12;;;;;;;16.37;78.42773;95630.97;;;;
2022/05/13 00:23:13;;;;;;;13.35;12;;;;;;;16.37;78.42773;95630.97;;;;
2022/05/13 00:24:14;;;;;;;13.35;12;;;;;;;16.37;78.42773;95630.97;;;;
2022/05/13 00:25:15;;;;;;;13.35;12;;;;;;;16.37;78.42773;95630.97;;;;
2022/05/13 00:26:17;;;;;;;13.35;12;;;;;;;16.37;78.42773;95630.97;;;;
2022/05/13 00:27:18;;;;;;;13.35;12;;;;;;;16.37;78.42773;95630.97;;;;
2022/05/13 00:28:18;;;;;;;13.35;12;;;;;;;16.37;78.42773;95630.97;;;;
2022/05/13 00:29:19;;;;;;;13.35;12;;;;;;;16.37;78.42773;95630.97;;;;
2022/05/13 00:30:19;;;;;;;13.35;12;;;;;;;16.37;78.42773;95630.97;;;;
2022/05/13 00:31:20;;;;;;;13.35;12;;;;;;;16.37;78.42773;95630.97;;;;
2022/05/13 00:32:21;;;;;;;13.25;11.9;;;;;;;16.36;78.76367;95621.36;;;;
2022/05/13 00:33:21;;;;;;;13.25;11.9;;;;;;;16.36;78.76367;95621.36;;;;
2022/05/13 00:34:22;;;;;;;13.25;11.9;;;;;;;16.36;78.76367;95621.36;;;;
2022/05/13 00:35:23;;;;;;;13.25;11.9;;;;;;;16.36;78.76367;95621.36;;;;
2022/05/13 00:36:23;;;;;;;13.25;11.9;;;;;;;16.36;78.76367;95621.36;;;;
2022/05/13 00:37:24;;;;;;;13.25;11.9;;;;;;;16.36;78.76367;95621.36;;;;
2022/05/13 00:38:25;;;;;;;13.25;11.9;;;;;;;16.36;78.76367;95621.36;;;;
2022/05/13 00:39:26;;;;;;;13.25;11.9;;;;;;;16.36;78.76367;95621.36;;;;
2022/05/13 00:40:27;;;;;;;13.25;11.9;;;;;;;16.36;78.76367;95621.36;;;;
2022/05/13 00:41:28;;;;;;;13.25;11.9;;;;;;;16.36;78.76367;95621.36;;;;
2022/05/13 00:42:28;;;;;;;13.25;11.9;;;;;;;16.36;78.76367;95621.36;;;;
2022/05/13 00:43:29;;;;;;;12.8;11.6;;;;;;;16.33;79.1709;95618.36;;;;
2022/05/13 00:44:42;;;;;;;12.8;11.6;;;;;;;16.33;79.1709;95618.36;;;;
2022/05/13 00:45:43;;;;;;;12.8;11.6;;;;;;;16.33;79.1709;95618.36;;;;
2022/05/13 00:46:44;;;;;;;12.8;11.6;;;;;;;16.33;79.1709;95618.36;;;;
2022/05/13 00:47:44;;;;;;;12.8;11.6;;;;;;;16.33;79.1709;95618.36;;;;
2022/05/13 00:48:45;;;;;;;12.8;11.6;;;;;;;16.33;79.1709;95618.36;;;;
2022/05/13 00:49:46;;;;;;;12.8;11.6;;;;;;;16.33;79.1709;95618.36;;;;
2022/05/13 00:50:47;;;;;;;12.8;11.6;;;;;;;16.33;79.1709;95618.36;;;;
2022/05/13 00:51:48;;;;;;;12.8;11.6;;;;;;;16.33;79.1709;95618.36;;;;
2022/05/13 00:52:48;;;;;;;12.8;11.6;;;;;;;16.33;79.1709;95618.36;;;;
2022/05/13 00:53:51;;;;;;;13.45;12.1;;;;;;;16.32;79.49707;95614.87;;;;
2022/05/13 00:54:52;;;;;;;13.45;12.1;;;;;;;16.32;79.49707;95614.87;;;;
2022/05/13 00:55:54;;;;;;;13.45;12.1;;;;;;;16.32;79.49707;95614.87;;;;
2022/05/13 00:56:55;;;;;;;13.45;12.1;;;;;;;16.32;79.49707;95614.87;;;;
2022/05/13 00:57:57;;;;;;;13.45;12.1;;;;;;;16.32;79.49707;95614.87;;;;
2022/05/13 00:59:01;;;;;;;13.45;12.1;;;;;;;16.32;79.49707;95614.87;;;;
2022/05/13 01:00:05;;;;;;;13.45;12.1;;;;;;;16.32;79.49707;95614.87;;;;
2022/05/13 01:01:11;;;;;;;13.45;12.1;;;;;;;16.32;79.49707;95614.87;;;;
2022/05/13 01:02:12;;;;;;;13.45;12.1;;;;;;;16.32;79.49707;95614.87;;;;
2022/05/13 01:03:13;;;;;;;13.45;12.1;;;;;;;16.32;79.49707;95614.87;;;;
2022/05/13 01:04:14;;;;;;;12.8;11.55;;;;;;;16.34;79.81445;95622.25;;;;
2022/05/13 01:05:18;;;;;;;12.8;11.55;;;;;;;16.34;79.81445;95622.25;;;;
2022/05/13 01:06:20;;;;;;;12.8;11.55;;;;;;;16.34;79.81445;95622.25;;;;
2022/05/13 01:07:23;;;;;;;12.8;11.55;;;;;;;16.34;79.81445;95622.25;;;;
2022/05/13 01:08:24;;;;;;;12.8;11.55;;;;;;;16.34;79.81445;95622.25;;;;
2022/05/13 01:09:25;;;;;;;12.8;11.55;;;;;;;16.34;79.81445;95622.25;;;;
2022/05/13 01:10:28;;;;;;;12.8;11.55;;;;;;;16.34;79.81445;95622.25;;;;
2022/05/13 01:11:29;;;;;;;12.8;11.55;;;;;;;16.34;79.81445;95622.25;;;;
2022/05/13 01:12:32;;;;;;;12.8;11.55;;;;;;;16.34;79.81445;95622.25;;;;
2022/05/13 01:13:37;;;;;;;12.8;11.55;;;;;;;16.34;79.81445;95622.25;;;;
2022/05/13 01:14:39;;;;;;;12.8;11.55;;;;;;;16.34;79.81445;95622.25;;;;
2022/05/13 01:15:43;;;;;;;12.5;11.3;;;;;;;16.36;80.08105;95608.01;;;;
2022/05/13 01:21:58;;;;;;;12.5;11.3;;;;;;;16.36;80.08105;95608.01;;;;
2022/05/13 01:23:12;;;;;;;12.5;11.3;;;;;;;16.36;80.08105;95608.01;;;;
2022/05/13 01:24:14;;;;;;;12.5;11.3;;;;;;;16.36;80.08105;95608.01;;;;
2022/05/13 01:25:15;;;;;;;12.5;11.3;;;;;;;16.36;80.08105;95608.01;;;;
2022/05/13 01:26:19;;;;;;;13.1;11.8;;;;;;;16.32;80.30078;95610.08;;;;
2022/05/13 01:27:22;;;;;;;13.1;11.8;;;;;;;16.32;80.30078;95610.08;;;;
2022/05/13 01:28:23;;;;;;;13.1;11.8;;;;;;;16.32;80.30078;95610.08;;;;
2022/05/13 01:29:25;;;;;;;13.1;11.8;;;;;;;16.32;80.30078;95610.08;;;;
2022/05/13 01:30:26;;;;;;;13.1;11.8;;;;;;;16.32;80.30078;95610.08;;;;
2022/05/13 01:31:29;;;;;;;13.1;11.8;;;;;;;16.32;80.30078;95610.08;;;;
2022/05/13 01:32:32;;;;;;;13.1;11.8;;;;;;;16.32;80.30078;95610.08;;;;
2022/05/13 01:33:32;;;;;;;13.1;11.8;;;;;;;16.32;80.30078;95610.08;;;;
2022/05/13 01:34:33;;;;;;;13.1;11.8;;;;;;;16.32;80.30078;95610.08;;;;
2022/05/13 01:35:34;;;;;;;13.1;11.8;;;;;;;16.32;80.30078;95610.08;;;;
2022/05/13 01:36:39;;;;;;;13.05;11.65;;;;;;;16.32;80.72559;95601.67;;;;
2022/05/13 01:37:42;;;;;;;13.05;11.65;;;;;;;16.32;80.72559;95601.67;;;;
2022/05/13 01:38:42;;;;;;;13.05;11.65;;;;;;;16.32;80.72559;95601.67;;;;
2022/05/13 01:39:43;;;;;;;13.05;11.65;;;;;;;16.32;80.72559;95601.67;;;;
2022/05/13 01:40:43;;;;;;;13.05;11.65;;;;;;;16.32;80.72559;95601.67;;;;
2022/05/13 01:41:44;;;;;;;13.05;11.65;;;;;;;16.32;80.72559;95601.67;;;;
2022/05/13 01:42:45;;;;;;;13.05;11.65;;;;;;;16.32;80.72559;95601.67;;;;
2022/05/13 01:43:45;;;;;;;13.05;11.65;;;;;;;16.32;80.72559;95601.67;;;;
2022/05/13 01:44:47;;;;;;;13.05;11.65;;;;;;;16.32;80.72559;95601.67;;;;
2022/05/13 01:45:48;;;;;;;13.05;11.65;;;;;;;16.32;80.72559;95601.67;;;;
2022/05/13 01:46:49;;;;;;;13.05;11.65;;;;;;;16.32;80.72559;95601.67;;;;
2022/05/13 01:47:50;;;;;;;13.45;11.9;;;;;;;16.26;80.94336;95611.83;;;;
2022/05/13 01:48:50;;;;;;;13.45;11.9;;;;;;;16.26;80.94336;95611.83;;;;
2022/05/13 01:49:51;;;;;;;13.45;11.9;;;;;;;16.26;80.94336;95611.83;;;;
2022/05/13 01:50:52;;;;;;;13.45;11.9;;;;;;;16.26;80.94336;95611.83;;;;
2022/05/13 01:51:53;;;;;;;13.45;11.9;;;;;;;16.26;80.94336;95611.83;;;;
2022/05/13 01:52:53;;;;;;;13.45;11.9;;;;;;;16.26;80.94336;95611.83;;;;
2022/05/13 01:53:55;;;;;;;13.45;11.9;;;;;;;16.26;80.94336;95611.83;;;;
2022/05/13 01:54:55;;;;;;;13.45;11.9;;;;;;;16.26;80.94336;95611.83;;;;
2022/05/13 01:55:56;;;;;;;13.45;11.9;;;;;;;16.26;80.94336;95611.83;;;;
2022/05/13 01:56:57;;;;;;;13.45;11.9;;;;;;;16.26;80.94336;95611.83;;;;
2022/05/13 01:57:57;;;;;;;15.9;13.05;;;;;;;16.25;81.24707;95620.48;;;;
2022/05/13 01:58:57;;;;;;;15.9;13.05;;;;;;;16.25;81.24707;95620.48;;;;
2022/05/13 01:59:58;;;;;;;15.9;13.05;;;;;;;16.25;81.24707;95620.48;;;;
2022/05/13 02:00:59;;;;;;;15.9;13.05;;;;;;;16.25;81.24707;95620.48;;;;
2022/05/13 02:02:01;;;;;;;15.9;13.05;;;;;;;16.25;81.24707;95620.48;;;;
2022/05/13 02:04:07;;;;;;;15.9;13.05;;;;;;;16.25;81.24707;95620.48;;;;
2022/05/13 02:05:08;;;;;;;15.9;13.05;;;;;;;16.25;81.24707;95620.48;;;;
2022/05/13 02:06:08;;;;;;;15.9;13.05;;;;;;;16.25;81.24707;95620.48;;;;
2022/05/13 02:07:09;;;;;;;15.9;13.05;;;;;;;16.25;81.24707;95620.48;;;;
2022/05/13 02:08:10;;;;;;;15.9;13.05;;;;;;;16.25;81.24707;95620.48;;;;
2022/05/13 02:09:10;;;;;;;12.65;11.45;;;;;;;16.32;81.61719;95607;;;;
2022/05/13 02:10:11;;;;;;;12.65;11.45;;;;;;;16.32;81.61719;95607;;;;
2022/05/13 02:11:11;;;;;;;12.65;11.45;;;;;;;16.32;81.61719;95607;;;;
2022/05/13 02:12:12;;;;;;;12.65;11.45;;;;;;;16.32;81.61719;95607;;;;
2022/05/13 02:13:13;;;;;;;12.65;11.45;;;;;;;16.32;81.61719;95607;;;;
2022/05/13 02:14:14;;;;;;;12.65;11.45;;;;;;;16.32;81.61719;95607;;;;
2022/05/13 02:15:17;;;;;;;12.65;11.45;;;;;;;16.32;81.61719;95607;;;;
2022/05/13 02:16:18;;;;;;;12.65;11.45;;;;;;;16.32;81.61719;95607;;;;
2022/05/13 02:17:19;;;;;;;12.65;11.45;;;;;;;16.32;81.61719;95607;;;;
2022/05/13 02:18:19;;;;;;;12.65;11.45;;;;;;;16.32;81.61719;95607;;;;
2022/05/13 02:19:20;;;;;;;12.75;11.45;;;;;;;16.28;81.64551;95609.33;;;;
2022/05/13 02:20:21;;;;;;;12.75;11.45;;;;;;;16.28;81.64551;95609.33;;;;
2022/05/13 02:21:22;;;;;;;12.75;11.45;;;;;;;16.28;81.64551;95609.33;;;;
2022/05/13 02:22:22;;;;;;;12.75;11.45;;;;;;;16.28;81.64551;95609.33;;;;
2022/05/13 02:23:23;;;;;;;12.75;11.45;;;;;;;16.28;81.64551;95609.33;;;;
2022/05/13 02:24:24;;;;;;;12.75;11.45;;;;;;;16.28;81.64551;95609.33;;;;
2022/05/13 02:25:24;;;;;;;12.75;11.45;;;;;;;16.28;81.64551;95609.33;;;;
2022/05/13 02:26:25;;;;;;;12.75;11.45;;;;;;;16.28;81.64551;95609.33;;;;
2022/05/13 02:27:25;;;;;;;12.75;11.45;;;;;;;16.28;81.64551;95609.33;;;;
2022/05/13 02:28:26;;;;;;;12.75;11.45;;;;;;;16.28;81.64551;95609.33;;;;
2022/05/13 02:29:28;;;;;;;12.75;11.45;;;;;;;16.28;81.64551;95609.33;;;;
2022/05/13 02:30:28;;;;;;;12.65;11.45;;;;;;;16.27;81.93555;95611.72;;;;
2022/05/13 02:31:30;;;;;;;12.65;11.45;;;;;;;16.27;81.93555;95611.72;;;;
2022/05/13 02:32:31;;;;;;;12.65;11.45;;;;;;;16.27;81.93555;95611.72;;;;
2022/05/13 02:33:31;;;;;;;12.65;11.45;;;;;;;16.27;81.93555;95611.72;;;;
2022/05/13 02:34:36;;;;;;;12.65;11.45;;;;;;;16.27;81.93555;95611.72;;;;
2022/05/13 02:35:37;;;;;;;12.65;11.45;;;;;;;16.27;81.93555;95611.72;;;;
2022/05/13 02:36:37;;;;;;;12.65;11.45;;;;;;;16.27;81.93555;95611.72;;;;
2022/05/13 02:37:38;;;;;;;12.65;11.45;;;;;;;16.27;81.93555;95611.72;;;;
2022/05/13 02:38:38;;;;;;;12.65;11.45;;;;;;;16.27;81.93555;95611.72;;;;
2022/05/13 02:39:39;;;;;;;12.65;11.45;;;;;;;16.27;81.93555;95611.72;;;;
2022/05/13 02:41:12;;;;;;;13.8;11.85;;;;;;;16.24;81.97363;95614.06;;;;
2022/05/13 02:42:14;;;;;;;13.8;11.85;;;;;;;16.24;81.97363;95614.06;;;;
2022/05/13 02:43:15;;;;;;;13.8;11.85;;;;;;;16.24;81.97363;95614.06;;;;
2022/05/13 02:44:15;;;;;;;13.8;11.85;;;;;;;16.24;81.97363;95614.06;;;;
2022/05/13 02:45:16;;;;;;;13.8;11.85;;;;;;;16.24;81.97363;95614.06;;;;
2022/05/13 02:46:16;;;;;;;13.8;11.85;;;;;;;16.24;81.97363;95614.06;;;;
2022/05/13 02:47:20;;;;;;;13.8;11.85;;;;;;;16.24;81.97363;95614.06;;;;
2022/05/13 02:48:20;;;;;;;13.8;11.85;;;;;;;16.24;81.97363;95614.06;;;;
2022/05/13 02:49:21;;;;;;;13.8;11.85;;;;;;;16.24;81.97363;95614.06;;;;
2022/05/13 02:50:22;;;;;;;13.8;11.85;;;;;;;16.24;81.97363;95614.06;;;;
2022/05/13 02:51:22;;;;;;;12.65;11.45;;;;;;;16.24;82.2998;95617.92;;;;
2022/05/13 02:52:24;;;;;;;12.65;11.45;;;;;;;16.24;82.2998;95617.92;;;;
2022/05/13 02:53:24;;;;;;;12.65;11.45;;;;;;;16.24;82.2998;95617.92;;;;
2022/05/13 02:54:25;;;;;;;12.65;11.45;;;;;;;16.24;82.2998;95617.92;;;;
2022/05/13 02:55:25;;;;;;;12.65;11.45;;;;;;;16.24;82.2998;95617.92;;;;
2022/05/13 02:56:26;;;;;;;12.65;11.45;;;;;;;16.24;82.2998;95617.92;;;;
2022/05/13 02:57:26;;;;;;;12.65;11.45;;;;;;;16.24;82.2998;95617.92;;;;
2022/05/13 02:58:27;;;;;;;12.65;11.45;;;;;;;16.24;82.2998;95617.92;;;;
2022/05/13 02:59:28;;;;;;;12.65;11.45;;;;;;;16.24;82.2998;95617.92;;;;
2022/05/13 03:00:28;;;;;;;12.65;11.45;;;;;;;16.24;82.2998;95617.92;;;;
2022/05/13 03:01:29;;;;;;;12.65;11.45;;;;;;;16.24;82.2998;95617.92;;;;
2022/05/13 03:02:29;;;;;;;12.9;11.6;;;;;;;16.2;82.33691;95614.12;;;;
2022/05/13 03:03:30;;;;;;;12.9;11.6;;;;;;;16.2;82.33691;95614.12;;;;
2022/05/13 03:04:30;;;;;;;12.9;11.6;;;;;;;16.2;82.33691;95614.12;;;;
2022/05/13 03:05:31;;;;;;;12.9;11.6;;;;;;;16.2;82.33691;95614.12;;;;
2022/05/13 03:06:32;;;;;;;12.9;11.6;;;;;;;16.2;82.33691;95614.12;;;;
2022/05/13 03:07:32;;;;;;;12.9;11.6;;;;;;;16.2;82.33691;95614.12;;;;
2022/05/13 03:08:33;;;;;;;12.9;11.6;;;;;;;16.2;82.33691;95614.12;;;;
2022/05/13 03:09:34;;;;;;;12.9;11.6;;;;;;;16.2;82.33691;95614.12;;;;
2022/05/13 03:10:36;;;;;;;12.9;11.6;;;;;;;16.2;82.33691;95614.12;;;;
2022/05/13 03:11:38;;;;;;;12.9;11.6;;;;;;;16.2;82.33691;95614.12;;;;
2022/05/13 03:12:38;;;;;;;12.3;10.8;;;;;;;16.21;82.63184;95605.06;;;;
2022/05/13 03:13:39;;;;;;;12.3;10.8;;;;;;;16.21;82.63184;95605.06;;;;
2022/05/13 03:14:40;;;;;;;12.3;10.8;;;;;;;16.21;82.63184;95605.06;;;;
2022/05/13 03:15:40;;;;;;;12.3;10.8;;;;;;;16.21;82.63184;95605.06;;;;
2022/05/13 03:16:41;;;;;;;12.3;10.8;;;;;;;16.21;82.63184;95605.06;;;;
2022/05/13 03:17:42;;;;;;;12.3;10.8;;;;;;;16.21;82.63184;95605.06;;;;
2022/05/13 03:18:42;;;;;;;12.3;10.8;;;;;;;16.21;82.63184;95605.06;;;;
2022/05/13 03:19:43;;;;;;;12.3;10.8;;;;;;;16.21;82.63184;95605.06;;;;
2022/05/13 03:20:43;;;;;;;12.3;10.8;;;;;;;16.21;82.63184;95605.06;;;;
2022/05/13 03:21:44;;;;;;;12.3;10.8;;;;;;;16.21;82.63184;95605.06;;;;
2022/05/13 03:22:45;;;;;;;12.3;10.8;;;;;;;16.21;82.63184;95605.06;;;;
2022/05/13 03:23:45;;;;;;;11.65;10.6;;;;;;;16.13;82.62695;95585.44;;;;
2022/05/13 03:24:46;;;;;;;11.65;10.6;;;;;;;16.13;82.62695;95585.44;;;;
2022/05/13 03:25:47;;;;;;;11.65;10.6;;;;;;;16.13;82.62695;95585.44;;;;
2022/05/13 03:26:47;;;;;;;11.65;10.6;;;;;;;16.13;82.62695;95585.44;;;;
2022/05/13 03:27:48;;;;;;;11.65;10.6;;;;;;;16.13;82.62695;95585.44;;;;
2022/05/13 03:28:48;;;;;;;11.65;10.6;;;;;;;16.13;82.62695;95585.44;;;;
2022/05/13 03:29:49;;;;;;;11.65;10.6;;;;;;;16.13;82.62695;95585.44;;;;
2022/05/13 03:30:50;;;;;;;11.65;10.6;;;;;;;16.13;82.62695;95585.44;;;;
2022/05/13 03:31:51;;;;;;;11.65;10.6;;;;;;;16.13;82.62695;95585.44;;;;
2022/05/13 03:32:51;;;;;;;11.65;10.6;;;;;;;16.13;82.62695;95585.44;;;;
2022/05/13 03:33:52;;;;;;;10.2;9.05;;;;;;;16.04;82.8916;95582.06;;;;
2022/05/13 03:34:53;;;;;;;10.2;9.05;;;;;;;16.04;82.8916;95582.06;;;;
2022/05/13 03:35:53;;;;;;;10.2;9.05;;;;;;;16.04;82.8916;95582.06;;;;
2022/05/13 03:36:54;;;;;;;10.2;9.05;;;;;;;16.04;82.8916;95582.06;;;;
2022/05/13 03:37:54;;;;;;;10.2;9.05;;;;;;;16.04;82.8916;95582.06;;;;
2022/05/13 03:38:55;;;;;;;10.2;9.05;;;;;;;16.04;82.8916;95582.06;;;;
2022/05/13 03:39:55;;;;;;;10.2;9.05;;;;;;;16.04;82.8916;95582.06;;;;
2022/05/13 03:40:56;;;;;;;10.2;9.05;;;;;;;16.04;82.8916;95582.06;;;;
2022/05/13 03:41:56;;;;;;;10.2;9.05;;;;;;;16.04;82.8916;95582.06;;;;
2022/05/13 03:42:57;;;;;;;10.2;9.05;;;;;;;16.04;82.8916;95582.06;;;;
2022/05/13 03:43:58;;;;;;;10.2;9.05;;;;;;;16.04;82.8916;95582.06;;;;
2022/05/13 03:44:58;;;;;;;8.249999;7.1;;;;;;;15.9;82.92188;95569.53;;;;
2022/05/13 03:45:59;;;;;;;8.249999;7.1;;;;;;;15.9;82.92188;95569.53;;;;
2022/05/13 03:46:59;;;;;;;8.249999;7.1;;;;;;;15.9;82.92188;95569.53;;;;
2022/05/13 03:48:00;;;;;;;8.249999;7.1;;;;;;;15.9;82.92188;95569.53;;;;
2022/05/13 03:49:01;;;;;;;8.249999;7.1;;;;;;;15.9;82.92188;95569.53;;;;
2022/05/13 03:50:03;;;;;;;8.249999;7.1;;;;;;;15.9;82.92188;95569.53;;;;
2022/05/13 03:51:05;;;;;;;8.249999;7.1;;;;;;;15.9;82.92188;95569.53;;;;
2022/05/13 03:52:06;;;;;;;8.249999;7.1;;;;;;;15.9;82.92188;95569.53;;;;
2022/05/13 03:53:07;;;;;;;8.249999;7.1;;;;;;;15.9;82.92188;95569.53;;;;
2022/05/13 03:54:08;;;;;;;8.249999;7.1;;;;;;;15.9;82.92188;95569.53;;;;
2022/05/13 03:55:09;;;;;;;8.1;7.3;;;;;;;15.78;83.02734;95562.62;;;;
2022/05/13 03:56:11;;;;;;;8.1;7.3;;;;;;;15.78;83.02734;95562.62;;;;
2022/05/13 03:57:11;;;;;;;8.1;7.3;;;;;;;15.78;83.02734;95562.62;;;;
2022/05/13 03:58:12;;;;;;;8.1;7.3;;;;;;;15.78;83.02734;95562.62;;;;
2022/05/13 03:59:13;;;;;;;8.1;7.3;;;;;;;15.78;83.02734;95562.62;;;;
2022/05/13 04:00:13;;;;;;;8.1;7.3;;;;;;;15.78;83.02734;95562.62;;;;
2022/05/13 04:01:15;;;;;;;8.1;7.3;;;;;;;15.78;83.02734;95562.62;;;;
2022/05/13 04:02:15;;;;;;;8.1;7.3;;;;;;;15.78;83.02734;95562.62;;;;
2022/05/13 04:03:16;;;;;;;8.1;7.3;;;;;;;15.78;83.02734;95562.62;;;;
2022/05/13 04:04:21;;;;;;;8.1;7.3;;;;;;;15.78;83.02734;95562.62;;;;
2022/05/13 04:10:34;;;;;;;8.4;7.6;;;;;;;15.76;83.26465;95557.93;;;;
2022/05/13 04:11:34;;;;;;;8.4;7.6;;;;;;;15.76;83.26465;95557.93;;;;
2022/05/13 04:17:49;;;;;;;9.1;8.15;;;;;;;15.8;83.33691;95576.53;;;;
2022/05/13 04:18:50;;;;;;;9.1;8.15;;;;;;;15.8;83.33691;95576.53;;;;
2022/05/13 04:19:51;;;;;;;9.1;8.15;;;;;;;15.8;83.33691;95576.53;;;;
2022/05/13 04:20:51;;;;;;;9.1;8.15;;;;;;;15.8;83.33691;95576.53;;;;
2022/05/13 04:21:52;;;;;;;9.1;8.15;;;;;;;15.8;83.33691;95576.53;;;;
2022/05/13 04:22:52;;;;;;;9.1;8.15;;;;;;;15.8;83.33691;95576.53;;;;
2022/05/13 04:23:53;;;;;;;9.1;8.15;;;;;;;15.8;83.33691;95576.53;;;;
2022/05/13 04:24:56;;;;;;;9.1;8.15;;;;;;;15.8;83.33691;95576.53;;;;
2022/05/13 04:25:56;;;;;;;9.1;8.15;;;;;;;15.8;83.33691;95576.53;;;;
2022/05/13 04:26:57;;;;;;;9.1;8.15;;;;;;;15.8;83.33691;95576.53;;;;
2022/05/13 04:27:57;;;;;;;9.550001;8.200001;;;;;;;15.85;83.46484;95579.3;;;;
2022/05/13 04:28:58;;;;;;;9.550001;8.200001;;;;;;;15.85;83.46484;95579.3;;;;
2022/05/13 04:29:59;;;;;;;9.550001;8.200001;;;;;;;15.85;83.46484;95579.3;;;;
2022/05/13 04:31:00;;;;;;;9.550001;8.200001;;;;;;;15.85;83.46484;95579.3;;;;
2022/05/13 04:32:00;;;;;;;9.550001;8.200001;;;;;;;15.85;83.46484;95579.3;;;;
2022/05/13 04:33:01;;;;;;;9.550001;8.200001;;;;;;;15.85;83.46484;95579.3;;;;
2022/05/13 04:34:01;;;;;;;9.550001;8.200001;;;;;;;15.85;83.46484;95579.3;;;;
2022/05/13 04:35:03;;;;;;;9.550001;8.200001;;;;;;;15.85;83.46484;95579.3;;;;
2022/05/13 04:36:04;;;;;;;9.550001;8.200001;;;;;;;15.85;83.46484;95579.3;;;;
2022/05/13 04:37:05;;;;;;;9.550001;8.200001;;;;;;;15.85;83.46484;95579.3;;;;
2022/05/13 04:38:06;;;;;;;10.6;9.5;;;;;;;15.9;83.49805;95592.19;;;;
2022/05/13 04:39:06;;;;;;;10.6;9.5;;;;;;;15.9;83.49805;95592.19;;;;
2022/05/13 04:40:07;;;;;;;10.6;9.5;;;;;;;15.9;83.49805;95592.19;;;;
2022/05/13 04:46:26;;;;;;;10.6;9.5;;;;;;;15.9;83.49805;95592.19;;;;
2022/05/13 04:48:26;;;;;;;10.6;9.5;;;;;;;15.9;83.49805;95592.19;;;;
2022/05/13 04:49:27;;;;;;;11.55;10.35;;;;;;;16.12;83.80957;95600.76;;;;
2022/05/13 04:50:28;;;;;;;11.55;10.35;;;;;;;16.12;83.80957;95600.76;;;;
2022/05/13 04:51:28;;;;;;;11.55;10.35;;;;;;;16.12;83.80957;95600.76;;;;
2022/05/13 04:52:29;;;;;;;11.55;10.35;;;;;;;16.12;83.80957;95600.76;;;;
2022/05/13 04:53:30;;;;;;;11.55;10.35;;;;;;;16.12;83.80957;95600.76;;;;
2022/05/13 04:54:34;;;;;;;11.55;10.35;;;;;;;16.12;83.80957;95600.76;;;;
2022/05/13 04:55:35;;;;;;;11.55;10.35;;;;;;;16.12;83.80957;95600.76;;;;
2022/05/13 04:56:36;;;;;;;11.55;10.35;;;;;;;16.12;83.80957;95600.76;;;;
2022/05/13 04:57:37;;;;;;;11.55;10.35;;;;;;;16.12;83.80957;95600.76;;;;
2022/05/13 04:58:38;;;;;;;11.55;10.35;;;;;;;16.12;83.80957;95600.76;;;;
2022/05/13 04:59:39;;;;;;;14.45;11.4;;;;;;;16.19;83.80273;95609.44;;;;
2022/05/13 05:00:40;;;;;;;14.45;11.4;;;;;;;16.19;83.80273;95609.44;;;;
2022/05/13 05:01:40;;;;;;;14.45;11.4;;;;;;;16.19;83.80273;95609.44;;;;
2022/05/13 05:02:41;;;;;;;14.45;11.4;;;;;;;16.19;83.80273;95609.44;;;;
2022/05/13 05:03:41;;;;;;;14.45;11.4;;;;;;;16.19;83.80273;95609.44;;;;
2022/05/13 05:04:43;;;;;;;14.45;11.4;;;;;;;16.19;83.80273;95609.44;;;;
2022/05/13 05:05:44;;;;;;;14.45;11.4;;;;;;;16.19;83.80273;95609.44;;;;
2022/05/13 05:06:45;;;;;;;14.45;11.4;;;;;;;16.19;83.80273;95609.44;;;;
2022/05/13 05:07:46;;;;;;;14.45;11.4;;;;;;;16.19;83.80273;95609.44;;;;
2022/05/13 05:08:46;;;;;;;14.45;11.4;;;;;;;16.19;83.80273;95609.44;;;;
2022/05/13 05:09:47;;;;;;;13.65;11.75;;;;;;;16.49;84.22852;95610.94;;;;
2022/05/13 05:10:47;;;;;;;13.65;11.75;;;;;;;16.49;84.22852;95610.94;;;;
2022/05/13 05:11:48;;;;;;;13.65;11.75;;;;;;;16.49;84.22852;95610.94;;;;
2022/05/13 05:12:49;;;;;;;13.65;11.75;;;;;;;16.49;84.22852;95610.94;;;;
2022/05/13 05:13:53;;;;;;;13.65;11.75;;;;;;;16.49;84.22852;95610.94;;;;
2022/05/13 05:14:53;;;;;;;13.65;11.75;;;;;;;16.49;84.22852;95610.94;;;;
2022/05/13 05:15:54;;;;;;;13.65;11.75;;;;;;;16.49;84.22852;95610.94;;;;
2022/05/13 05:16:56;;;;;;;13.65;11.75;;;;;;;16.49;84.22852;95610.94;;;;
2022/05/13 05:17:56;;;;;;;13.65;11.75;;;;;;;16.49;84.22852;95610.94;;;;
2022/05/13 05:18:59;;;;;;;13.65;11.75;;;;;;;16.49;84.22852;95610.94;;;;
2022/05/13 05:20:00;;;;;;;13.65;11.75;;;;;;;16.49;84.22852;95610.94;;;;
2022/05/13 05:21:00;;;;;;;13.05;11.8;;;;;;;16.98;84.28906;95622.61;;;;
2022/05/13 05:22:01;;;;;;;13.05;11.8;;;;;;;16.98;84.28906;95622.61;;;;
2022/05/13 05:23:02;;;;;;;13.05;11.8;;;;;;;16.98;84.28906;95622.61;;;;
2022/05/13 05:24:03;;;;;;;13.05;11.8;;;;;;;16.98;84.28906;95622.61;;;;
2022/05/13 05:25:04;;;;;;;13.05;11.8;;;;;;;16.98;84.28906;95622.61;;;;
2022/05/13 05:26:06;;;;;;;13.05;11.8;;;;;;;16.98;84.28906;95622.61;;;;
2022/05/13 05:27:09;;;;;;;13.05;11.8;;;;;;;16.98;84.28906;95622.61;;;;
2022/05/13 05:28:10;;;;;;;13.05;11.8;;;;;;;16.98;84.28906;95622.61;;;;
2022/05/13 05:29:11;;;;;;;13.05;11.8;;;;;;;16.98;84.28906;95622.61;;;;
2022/05/13 05:30:12;;;;;;;13.05;11.8;;;;;;;16.98;84.28906;95622.61;;;;
2022/05/13 05:31:14;;;;;;;10.25;9.15;;;;;;;17.08;83.88184;95644.65;;;;
2022/05/13 05:32:15;;;;;;;10.25;9.15;;;;;;;17.08;83.88184;95644.65;;;;
2022/05/13 05:33:15;;;;;;;10.25;9.15;;;;;;;17.08;83.88184;95644.65;;;;
2022/05/13 05:34:17;;;;;;;10.25;9.15;;;;;;;17.08;83.88184;95644.65;;;;
2022/05/13 05:35:18;;;;;;;10.25;9.15;;;;;;;17.08;83.88184;95644.65;;;;
2022/05/13 05:36:21;;;;;;;10.25;9.15;;;;;;;17.08;83.88184;95644.65;;;;
2022/05/13 05:37:22;;;;;;;10.25;9.15;;;;;;;17.08;83.88184;95644.65;;;;
2022/05/13 05:38:23;;;;;;;10.25;9.15;;;;;;;17.08;83.88184;95644.65;;;;
2022/05/13 05:39:24;;;;;;;10.25;9.15;;;;;;;17.08;83.88184;95644.65;;;;
2022/05/13 05:40:25;;;;;;;10.25;9.15;;;;;;;17.08;83.88184;95644.65;;;;
2022/05/13 05:41:26;;;;;;;10.25;9.15;;;;;;;17.08;83.88184;95644.65;;;;
2022/05/13 05:42:27;;;;;;;10.55;9.450001;;;;;;;16.87;83.99316;95660.99;;;;
2022/05/13 05:43:27;;;;;;;10.55;9.450001;;;;;;;16.87;83.99316;95660.99;;;;
2022/05/13 05:44:29;;;;;;;10.55;9.450001;;;;;;;16.87;83.99316;95660.99;;;;
2022/05/13 05:45:29;;;;;;;10.55;9.450001;;;;;;;16.87;83.99316;95660.99;;;;
2022/05/13 05:46:30;;;;;;;10.55;9.450001;;;;;;;16.87;83.99316;95660.99;;;;
2022/05/13 05:47:30;;;;;;;10.55;9.450001;;;;;;;16.87;83.99316;95660.99;;;;
2022/05/13 05:48:31;;;;;;;10.55;9.450001;;;;;;;16.87;83.99316;95660.99;;;;
2022/05/13 05:49:32;;;;;;;10.55;9.450001;;;;;;;16.87;83.99316;95660.99;;;;
2022/05/13 05:50:33;;;;;;;10.55;9.450001;;;;;;;16.87;83.99316;95660.99;;;;
2022/05/13 05:51:34;;;;;;;10.55;9.450001;;;;;;;16.87;83.99316;95660.99;;;;
2022/05/13 05:52:34;;;;;;;10.5;9.499998;;;;;;;16.75;84.0918;95667.32;;;;
2022/05/13 05:58:57;;;;;;;10.5;9.499998;;;;;;;16.75;84.0918;95667.32;;;;
2022/05/13 05:59:58;;;;;;;10.5;9.499998;;;;;;;16.75;84.0918;95667.32;;;;
2022/05/13 06:00:59;;;;;;;10.5;9.499998;;;;;;;16.75;84.0918;95667.32;;;;
2022/05/13 06:01:59;;;;;;;10.5;9.499998;;;;;;;16.75;84.0918;95667.32;;;;
2022/05/13 06:02:59;;;;;;;10.5;9.499998;;;;;;;16.75;84.0918;95667.32;;;;
2022/05/13 06:04:00;;;;;;;10.25;9.25;;;;;;;16.64;84.31152;95661.01;;;;
2022/05/13 06:05:01;;;;;;;10.25;9.25;;;;;;;16.64;84.31152;95661.01;;;;
2022/05/13 06:06:01;;;;;;;10.25;9.25;;;;;;;16.64;84.31152;95661.01;;;;
2022/05/13 06:07:02;;;;;;;10.25;9.25;;;;;;;16.64;84.31152;95661.01;;;;
2022/05/13 06:08:03;;;;;;;10.25;9.25;;;;;;;16.64;84.31152;95661.01;;;;
2022/05/13 06:09:05;;;;;;;10.25;9.25;;;;;;;16.64;84.31152;95661.01;;;;
2022/05/13 06:10:06;;;;;;;10.25;9.25;;;;;;;16.64;84.31152;95661.01;;;;
2022/05/13 06:11:07;;;;;;;10.25;9.25;;;;;;;16.64;84.31152;95661.01;;;;